メインページ
METAR-TAF:

METAR-TAF

空港 :

ヴェラナ国際空港

マレ, モルディブ

緯度: 04-12N, 経度: 073-32E, 海抜: 2m

現時点の気象観測

当レポートは47分前の16:00(UTC)に作成
の風 19kt
気温 29°C
湿度 84%
気圧 1011 hPa
視程: 8000m
高度1700ftの雲は散在している
高度1800ftの雲はほとんどない, 積乱雲.
高度26000ftの千切れ雲あり
激しい雷雨

METAR: VRMM 271600Z 08019KT 8000 TS SCT017 FEW018CB BKN260 29/26 Q1011 CB S,SW TEMPO 3000 TSRA

時間: 21:47 (16:47 UTC)

予報

当レポートは5時間47分前の11:00(UTC)に作成
予報は27日の 12時(UTC)から 28日の 18時(UTC)まで有効
東/北東の風 15kt
視程: 8000m
高度1800ftの雲はほとんどない, 塔状積雲.
27日の 12時(UTC)から 27日の 18時(UTC)まで一時的に
高度1800ftの雲はほとんどない, 積乱雲.

TAF: VRMM 271100Z 2712/2818 07015KT 8000 FEW018TCU TEMPO 2712/2718 FEW018CB

4,000以上の空港の気象観測と天気予報(METAR報とTAF報)

利用可能な観測所は地図上に黄色い丸と赤い丸で示す。

丸の上にカーソルを重ねると観測所名を参照できる。

次にクリックすると気象観測と天気予報を参照できる。

マップの切り替え:黒色「×」印の緑ボタンをクリックして拡大、「-」印の緑ボタンをクリックして縮小、緑色の三角印をクリックして隣りの地図に切り替え


METAR-TAF: